createdAt,value
2023-06-27T00:01:48.921Z,53.34
2023-06-27T00:04:16.588Z,53.23
2023-06-27T00:06:43.131Z,53.14
2023-06-27T00:09:10.822Z,53.44
2023-06-27T00:11:40.895Z,53.39
2023-06-27T00:14:10.052Z,53.45
2023-06-27T00:16:37.750Z,53.67
2023-06-27T00:19:05.041Z,53.52
2023-06-27T00:21:33.107Z,53.47
2023-06-27T00:24:00.415Z,53.43
2023-06-27T00:26:28.428Z,53.81
2023-06-27T00:28:55.670Z,53.86
2023-06-27T00:31:22.727Z,53.59
2023-06-27T00:33:49.502Z,53.82
2023-06-27T00:36:17.737Z,53.89
2023-06-27T00:38:44.326Z,54.13
2023-06-27T00:41:10.837Z,54.35
2023-06-27T00:43:37.472Z,54.19
2023-06-27T00:46:07.592Z,54.35
2023-06-27T00:48:34.546Z,54.55
2023-06-27T00:51:01.870Z,54.49
2023-06-27T00:53:29.768Z,54.82
2023-06-27T00:55:57.098Z,54.98
2023-06-27T00:58:25.767Z,54.90
2023-06-27T01:00:52.733Z,55.04
2023-06-27T01:03:19.934Z,54.86
2023-06-27T01:05:47.032Z,55.14
2023-06-27T01:08:30.751Z,54.96
2023-06-27T01:11:20.928Z,55.04
2023-06-27T01:13:54.273Z,54.82
2023-06-27T01:16:23.684Z,54.99
2023-06-27T01:18:51.927Z,55.21
2023-06-27T01:21:21.211Z,55.30
2023-06-27T01:23:50.745Z,55.46
2023-06-27T01:26:17.673Z,55.47
2023-06-27T01:28:45.736Z,55.83
2023-06-27T01:31:21.010Z,56.04
2023-06-27T01:33:52.509Z,56.03
2023-06-27T01:36:26.804Z,56.15
2023-06-27T01:39:28.705Z,56.34
2023-06-27T01:42:01.680Z,56.92
2023-06-27T01:44:28.895Z,56.85
2023-06-27T01:46:55.604Z,56.89
2023-06-27T01:49:23.174Z,56.78
2023-06-27T01:51:51.067Z,56.69
2023-06-27T01:54:17.508Z,56.98
2023-06-27T01:56:44.002Z,57.30
2023-06-27T01:59:10.530Z,57.46
2023-06-27T02:01:37.241Z,57.65
2023-06-27T02:04:05.359Z,57.75
2023-06-27T02:06:31.914Z,57.58
2023-06-27T02:08:58.531Z,57.31
2023-06-27T02:11:24.981Z,57.29
2023-06-27T02:13:51.465Z,57.35
2023-06-27T02:16:18.078Z,57.66
2023-06-27T02:18:44.768Z,57.86
2023-06-27T02:21:12.048Z,58.16
2023-06-27T02:23:38.649Z,58.11
2023-06-27T02:26:06.983Z,58.90
2023-06-27T02:28:34.813Z,58.79
2023-06-27T02:31:04.143Z,59.18
2023-06-27T02:33:30.705Z,59.44
2023-06-27T02:36:01.629Z,59.63
2023-06-27T02:38:28.096Z,59.59
2023-06-27T02:40:55.333Z,59.96
2023-06-27T02:43:21.796Z,60.15
2023-06-27T02:45:48.294Z,60.02
2023-06-27T02:48:14.728Z,60.19
2023-06-27T02:50:41.235Z,60.20
2023-06-27T02:53:07.721Z,60.33
2023-06-27T02:55:34.462Z,60.14
2023-06-27T02:58:01.566Z,60.09
2023-06-27T03:00:29.064Z,59.85
2023-06-27T03:02:56.566Z,60.11
2023-06-27T03:05:23.259Z,60.20
2023-06-27T03:07:51.369Z,60.08
2023-06-27T03:10:18.700Z,60.02
2023-06-27T03:12:45.180Z,59.97
2023-06-27T03:15:11.719Z,59.92
2023-06-27T03:17:39.432Z,59.80
2023-06-27T03:20:09.648Z,60.07
2023-06-27T03:22:36.170Z,59.86
2023-06-27T03:25:02.886Z,60.03
2023-06-27T03:27:29.347Z,59.87
2023-06-27T03:29:57.671Z,59.99
2023-06-27T03:32:26.670Z,60.07
2023-06-27T03:34:53.361Z,59.93
2023-06-27T03:37:20.499Z,60.13
2023-06-27T03:39:47.168Z,60.18
2023-06-27T03:42:16.274Z,60.15
2023-06-27T03:44:42.779Z,60.31
2023-06-27T03:47:09.373Z,60.40
2023-06-27T03:49:37.588Z,60.63
2023-06-27T03:52:04.360Z,60.93
2023-06-27T03:54:30.845Z,61.40
2023-06-27T03:56:57.342Z,61.33
2023-06-27T03:59:24.183Z,61.57
2023-06-27T04:01:52.173Z,61.62
2023-06-27T04:04:18.803Z,61.39
2023-06-27T04:06:45.344Z,61.25
2023-06-27T04:09:11.895Z,61.43
2023-06-27T04:11:38.413Z,61.36
2023-06-27T04:14:05.000Z,61.48
2023-06-27T04:16:31.503Z,61.44
2023-06-27T04:18:58.545Z,61.46
2023-06-27T04:21:25.172Z,61.70
2023-06-27T04:23:55.308Z,61.94
2023-06-27T04:26:21.970Z,61.83
2023-06-27T04:28:48.585Z,61.69
2023-06-27T04:31:15.837Z,61.46
2023-06-27T04:33:42.775Z,61.65
2023-06-27T04:36:10.353Z,61.58
2023-06-27T04:38:41.476Z,61.46
2023-06-27T04:41:08.712Z,60.89
2023-06-27T04:43:37.552Z,61.08
2023-06-27T04:46:04.550Z,61.03
2023-06-27T04:48:31.215Z,60.55
2023-06-27T04:50:57.739Z,60.63
2023-06-27T04:53:25.030Z,60.50
2023-06-27T04:55:53.338Z,60.81
2023-06-27T04:58:20.514Z,60.51
2023-06-27T05:00:52.876Z,59.68
2023-06-27T05:03:22.111Z,59.40
2023-06-27T05:05:50.167Z,59.05
2023-06-27T05:08:17.651Z,58.92
2023-06-27T05:10:44.546Z,58.50
2023-06-27T05:13:13.354Z,58.26
2023-06-27T05:15:40.341Z,58.04
2023-06-27T05:18:06.992Z,57.68
2023-06-27T05:20:33.582Z,57.47
2023-06-27T05:23:00.177Z,57.09
2023-06-27T05:25:26.677Z,56.54
2023-06-27T05:27:53.127Z,56.43
2023-06-27T05:30:20.066Z,56.13
2023-06-27T05:32:46.620Z,55.98
2023-06-27T05:35:13.137Z,55.75
2023-06-27T05:37:39.632Z,55.40
2023-06-27T05:40:06.765Z,55.27
2023-06-27T05:42:33.880Z,55.04
2023-06-27T05:45:00.400Z,54.68
2023-06-27T05:47:26.899Z,54.67
2023-06-27T05:49:53.591Z,53.90
2023-06-27T05:52:21.727Z,53.81
2023-06-27T05:54:48.263Z,52.98
2023-06-27T05:57:14.715Z,52.89
2023-06-27T05:59:41.180Z,52.96
2023-06-27T06:02:07.727Z,53.12
2023-06-27T06:04:34.278Z,52.54
2023-06-27T06:07:00.816Z,52.38
2023-06-27T06:09:27.440Z,52.09
2023-06-27T06:11:53.893Z,51.65
2023-06-27T06:14:20.353Z,51.18
2023-06-27T06:16:46.797Z,51.25
2023-06-27T06:19:13.383Z,50.98
2023-06-27T06:21:40.105Z,50.53
2023-06-27T06:24:07.171Z,50.88
2023-06-27T06:26:33.631Z,50.86
2023-06-27T06:29:00.072Z,50.61
2023-06-27T06:31:26.571Z,49.92
2023-06-27T06:33:54.299Z,49.35
2023-06-27T06:36:20.757Z,49.12
2023-06-27T06:38:47.234Z,48.42
2023-06-27T06:41:14.813Z,48.07
2023-06-27T06:43:41.268Z,47.80
2023-06-27T06:46:08.148Z,47.78
2023-06-27T06:48:34.655Z,48.25
2023-06-27T06:51:01.258Z,48.09
2023-06-27T06:53:27.755Z,47.59
2023-06-27T06:55:54.247Z,47.57
2023-06-27T06:58:20.709Z,47.74
2023-06-27T07:00:47.152Z,47.40
2023-06-27T07:03:14.758Z,47.57
2023-06-27T07:05:44.256Z,47.70
2023-06-27T07:08:11.124Z,47.49
2023-06-27T07:10:38.058Z,47.42
2023-06-27T07:13:06.412Z,47.22
2023-06-27T07:15:33.808Z,47.82
2023-06-27T07:18:00.579Z,47.15
2023-06-27T07:20:27.176Z,47.19
2023-06-27T07:22:53.709Z,47.21
2023-06-27T07:25:20.424Z,46.97
2023-06-27T07:27:47.077Z,46.99
2023-06-27T07:30:14.022Z,47.10
2023-06-27T07:32:40.602Z,47.01
2023-06-27T07:35:07.557Z,46.67
2023-06-27T07:37:34.011Z,46.14
2023-06-27T07:40:00.731Z,45.95
2023-06-27T07:42:27.563Z,45.54
2023-06-27T07:44:54.482Z,44.82
2023-06-27T07:47:21.307Z,44.92
2023-06-27T07:49:47.828Z,44.72
2023-06-27T07:52:14.369Z,44.45
2023-06-27T07:54:40.932Z,44.46
2023-06-27T07:57:07.515Z,44.41
2023-06-27T07:59:34.160Z,44.59
2023-06-27T08:02:00.659Z,45.06
2023-06-27T08:04:27.452Z,44.94
2023-06-27T08:06:54.436Z,44.50
2023-06-27T08:09:23.933Z,44.28
2023-06-27T08:11:51.468Z,43.81
2023-06-27T08:14:18.478Z,44.19
2023-06-27T08:16:45.012Z,43.73
2023-06-27T08:19:11.530Z,44.12
2023-06-27T08:21:38.010Z,43.69
2023-06-27T08:24:04.829Z,43.47
2023-06-27T08:26:31.303Z,43.42
2023-06-27T08:28:57.783Z,43.58
2023-06-27T08:31:24.505Z,43.68
2023-06-27T08:33:51.173Z,44.03
2023-06-27T08:36:18.010Z,44.29
2023-06-27T08:38:44.547Z,43.93
2023-06-27T08:41:12.065Z,43.97
2023-06-27T08:43:40.164Z,43.82
2023-06-27T08:46:09.667Z,43.52
2023-06-27T08:48:40.785Z,43.68
2023-06-27T08:51:09.340Z,43.55
2023-06-27T08:53:37.793Z,43.90
2023-06-27T08:56:15.344Z,44.05
2023-06-27T08:58:51.702Z,43.59
2023-06-27T09:01:18.850Z,42.24
2023-06-27T09:03:45.574Z,42.27
2023-06-27T09:06:13.422Z,42.15
2023-06-27T09:08:40.366Z,42.57
2023-06-27T09:11:10.942Z,42.20
2023-06-27T09:13:38.659Z,42.09
2023-06-27T09:16:08.852Z,41.80
2023-06-27T09:18:37.314Z,41.60
2023-06-27T09:21:04.336Z,41.59
2023-06-27T09:23:31.992Z,41.31
2023-06-27T09:26:11.090Z,41.60
2023-06-27T09:28:52.894Z,42.21
2023-06-27T09:31:23.250Z,42.83
2023-06-27T09:33:52.576Z,42.68
2023-06-27T09:39:11.743Z,41.53
2023-06-27T09:41:46.365Z,41.72
2023-06-27T09:44:14.724Z,41.16
2023-06-27T09:46:43.164Z,41.69
2023-06-27T09:49:10.330Z,41.87
2023-06-27T09:51:37.761Z,41.53
2023-06-27T09:54:05.193Z,41.20
2023-06-27T09:56:33.268Z,41.28
2023-06-27T09:59:21.902Z,41.55
2023-06-27T10:01:52.251Z,41.16
2023-06-27T10:04:19.163Z,40.74
2023-06-27T10:06:45.976Z,41.25
2023-06-27T10:09:12.750Z,40.11
2023-06-27T10:11:40.032Z,40.77
2023-06-27T10:14:06.765Z,40.93
2023-06-27T10:16:33.477Z,40.35
2023-06-27T10:19:01.501Z,40.92
2023-06-27T10:21:30.429Z,41.49
2023-06-27T10:24:00.218Z,41.54
2023-06-27T10:26:27.932Z,41.42
2023-06-27T10:28:55.469Z,41.79
2023-06-27T10:31:50.663Z,41.66
2023-06-27T10:34:21.676Z,40.77
2023-06-27T10:37:02.268Z,40.49
2023-06-27T10:39:33.493Z,40.49
2023-06-27T10:42:04.881Z,41.09
2023-06-27T10:44:32.893Z,40.46
2023-06-27T10:47:17.439Z,40.37
2023-06-27T10:49:49.992Z,40.52
2023-06-27T10:52:26.118Z,40.21
2023-06-27T10:55:19.354Z,40.17
2023-06-27T10:57:49.401Z,39.76
2023-06-27T11:00:25.019Z,39.27
2023-06-27T11:02:55.293Z,38.69
2023-06-27T11:05:40.543Z,38.25
2023-06-27T11:08:10.665Z,37.81
2023-06-27T11:10:38.143Z,37.83
2023-06-27T11:13:17.097Z,37.87
2023-06-27T11:15:45.347Z,38.20
2023-06-27T11:18:16.140Z,39.11
2023-06-27T11:20:44.173Z,39.13
2023-06-27T11:23:12.878Z,39.26
2023-06-27T11:25:43.614Z,38.16
2023-06-27T11:28:12.003Z,38.51
2023-06-27T11:30:39.677Z,39.42
2023-06-27T11:33:08.244Z,38.99
2023-06-27T11:35:36.561Z,39.39
2023-06-27T11:38:07.382Z,39.34
2023-06-27T11:40:33.976Z,39.19
2023-06-27T11:43:04.544Z,39.18
2023-06-27T11:45:32.185Z,38.65
2023-06-27T11:48:02.415Z,38.31
2023-06-27T11:50:30.152Z,37.74
2023-06-27T11:52:58.371Z,37.73
2023-06-27T11:55:25.685Z,37.42
2023-06-27T11:57:57.233Z,38.08
2023-06-27T12:00:29.693Z,37.79
2023-06-27T12:02:58.214Z,37.54
2023-06-27T12:05:26.016Z,37.75
2023-06-27T12:08:05.854Z,37.83
2023-06-27T12:10:33.892Z,38.06
2023-06-27T12:13:06.248Z,37.89
2023-06-27T12:15:44.440Z,38.08
2023-06-27T12:18:12.392Z,37.06
2023-06-27T12:20:43.445Z,36.48
2023-06-27T12:23:10.949Z,37.72
2023-06-27T12:25:40.261Z,37.43
2023-06-27T12:28:07.825Z,36.49
2023-06-27T12:30:35.089Z,36.54
2023-06-27T12:33:02.238Z,35.15
2023-06-27T12:35:28.925Z,35.80
2023-06-27T12:37:55.849Z,35.98
2023-06-27T12:40:24.063Z,35.35
2023-06-27T12:42:51.652Z,35.99
2023-06-27T12:45:21.911Z,35.55
2023-06-27T12:47:48.940Z,35.39
2023-06-27T12:50:17.985Z,35.57
2023-06-27T12:52:48.733Z,36.44
2023-06-27T12:55:16.622Z,36.36
2023-06-27T12:57:43.964Z,36.01
2023-06-27T13:00:11.240Z,35.79
2023-06-27T13:02:39.058Z,34.86
2023-06-27T13:05:06.953Z,34.40
2023-06-27T13:07:34.676Z,34.95
2023-06-27T13:10:04.565Z,34.72
2023-06-27T13:12:31.403Z,34.79
2023-06-27T13:14:57.849Z,34.85
2023-06-27T13:17:24.484Z,34.42
2023-06-27T13:19:51.651Z,34.81
2023-06-27T13:22:18.219Z,33.39
2023-06-27T13:24:44.985Z,33.88
2023-06-27T13:27:11.479Z,33.06
2023-06-27T13:29:38.019Z,32.69
2023-06-27T13:32:05.072Z,33.10
2023-06-27T13:34:31.579Z,32.12
2023-06-27T13:36:58.095Z,32.50
2023-06-27T13:39:24.603Z,33.37
2023-06-27T13:41:51.134Z,33.71
2023-06-27T13:44:17.646Z,34.03
2023-06-27T13:46:44.341Z,34.04
2023-06-27T13:49:11.012Z,34.98
2023-06-27T13:51:37.556Z,34.70
2023-06-27T13:54:04.485Z,34.85
2023-06-27T13:56:31.045Z,33.68
2023-06-27T13:58:59.294Z,33.24
2023-06-27T14:01:26.860Z,32.58
2023-06-27T14:03:53.646Z,32.29
2023-06-27T14:06:20.336Z,32.41
2023-06-27T14:08:46.801Z,31.24
2023-06-27T14:11:15.329Z,31.34
2023-06-27T14:13:46.387Z,30.58
2023-06-27T14:16:13.480Z,30.38
2023-06-27T14:18:40.025Z,30.21
2023-06-27T14:21:09.656Z,30.08
2023-06-27T14:23:40.854Z,30.22
2023-06-27T14:26:10.046Z,30.54
2023-06-27T14:28:36.529Z,30.86
2023-06-27T14:31:04.303Z,30.70
2023-06-27T14:33:30.920Z,30.64
2023-06-27T14:35:57.566Z,30.69
2023-06-27T14:38:24.033Z,30.66
2023-06-27T14:40:50.895Z,30.70
2023-06-27T14:43:19.330Z,30.89
2023-06-27T14:45:45.963Z,31.05
2023-06-27T14:48:12.481Z,30.04
2023-06-27T14:50:39.081Z,29.89
2023-06-27T14:53:07.198Z,29.84
2023-06-27T14:55:33.817Z,29.78
2023-06-27T14:58:01.365Z,29.83
2023-06-27T15:00:28.154Z,31.67
2023-06-27T15:02:54.713Z,31.59
2023-06-27T15:05:21.454Z,31.89
2023-06-27T15:07:48.047Z,32.46
2023-06-27T15:10:14.531Z,33.01
2023-06-27T15:12:41.250Z,33.52
2023-06-27T15:15:08.446Z,32.81
2023-06-27T15:17:35.145Z,32.55
2023-06-27T15:20:02.704Z,32.23
2023-06-27T15:22:29.556Z,31.98
2023-06-27T15:24:56.116Z,32.51
2023-06-27T15:27:23.063Z,32.28
2023-06-27T15:29:49.762Z,33.04
2023-06-27T15:32:16.418Z,32.80
2023-06-27T15:34:44.674Z,33.12
2023-06-27T15:37:11.595Z,33.67
2023-06-27T15:39:38.974Z,34.05
2023-06-27T15:42:07.102Z,34.84
2023-06-27T15:44:35.935Z,35.22
2023-06-27T15:47:02.772Z,35.39
2023-06-27T15:49:29.270Z,35.72
2023-06-27T15:51:55.729Z,36.04
2023-06-27T15:54:22.218Z,35.90
2023-06-27T15:56:48.732Z,36.06
2023-06-27T15:59:15.950Z,35.83
2023-06-27T16:01:44.279Z,36.33
2023-06-27T16:04:11.030Z,36.35
2023-06-27T16:06:37.633Z,36.00
2023-06-27T16:09:04.954Z,35.87
2023-06-27T16:11:32.813Z,36.53
2023-06-27T16:13:59.701Z,36.49
2023-06-27T16:16:26.411Z,37.18
2023-06-27T16:18:52.895Z,37.58
2023-06-27T16:21:19.617Z,37.80
2023-06-27T16:23:46.552Z,37.59
2023-06-27T16:26:13.319Z,37.31
2023-06-27T16:28:40.088Z,37.14
2023-06-27T16:31:06.800Z,36.84
2023-06-27T16:33:33.395Z,36.77
2023-06-27T16:35:59.931Z,36.74
2023-06-27T16:38:26.430Z,36.73
2023-06-27T16:40:52.958Z,36.19
2023-06-27T16:43:19.393Z,35.91
2023-06-27T16:45:45.854Z,35.94
2023-06-27T16:48:12.401Z,35.96
2023-06-27T16:50:39.161Z,36.03
2023-06-27T16:53:08.777Z,36.18
2023-06-27T16:55:35.255Z,36.01
2023-06-27T16:58:01.708Z,36.00
2023-06-27T17:00:28.179Z,35.98
2023-06-27T17:02:54.845Z,35.65
2023-06-27T17:05:21.390Z,35.79
2023-06-27T17:07:48.952Z,35.98
2023-06-27T17:10:15.577Z,35.94
2023-06-27T17:12:42.070Z,35.88
2023-06-27T17:15:09.087Z,35.66
2023-06-27T17:17:35.612Z,35.53
2023-06-27T17:20:02.126Z,35.22
2023-06-27T17:22:29.352Z,35.13
2023-06-27T17:24:55.847Z,35.59
2023-06-27T17:27:22.403Z,35.84
2023-06-27T17:29:48.891Z,35.60
2023-06-27T17:32:16.614Z,35.13
2023-06-27T17:34:43.048Z,35.01
2023-06-27T17:37:09.560Z,34.75
2023-06-27T17:39:36.038Z,34.51
2023-06-27T17:42:02.506Z,34.79
2023-06-27T17:44:29.036Z,34.85
2023-06-27T17:46:55.522Z,34.64
2023-06-27T17:49:24.960Z,35.10
2023-06-27T17:51:52.738Z,35.61
2023-06-27T17:54:19.244Z,36.10
2023-06-27T17:56:47.700Z,36.61
2023-06-27T17:59:14.393Z,36.80
2023-06-27T18:01:40.976Z,37.10
2023-06-27T18:04:07.583Z,37.38
2023-06-27T18:06:34.076Z,37.90
2023-06-27T18:09:00.523Z,38.40
2023-06-27T18:11:29.856Z,38.75
2023-06-27T18:13:56.557Z,39.10
2023-06-27T18:16:24.283Z,39.53
2023-06-27T18:18:50.804Z,39.95
2023-06-27T18:21:17.251Z,39.67
2023-06-27T18:23:43.771Z,40.08
2023-06-27T18:26:10.234Z,39.98
2023-06-27T18:28:36.725Z,40.21
2023-06-27T18:31:03.926Z,40.67
2023-06-27T18:33:30.741Z,40.95
2023-06-27T18:35:59.134Z,40.81
2023-06-27T18:38:28.766Z,40.90
2023-06-27T18:40:55.358Z,40.83
2023-06-27T18:43:21.828Z,41.30
2023-06-27T18:45:48.309Z,41.36
2023-06-27T18:48:15.663Z,41.54
2023-06-27T18:50:42.419Z,41.53
2023-06-27T18:53:09.096Z,41.42
2023-06-27T18:55:35.557Z,41.92
2023-06-27T18:58:02.212Z,42.32
2023-06-27T19:00:29.356Z,42.36
2023-06-27T19:02:55.866Z,42.71
2023-06-27T19:05:22.402Z,42.93
2023-06-27T19:07:48.953Z,43.01
2023-06-27T19:10:16.418Z,43.50
2023-06-27T19:12:42.933Z,43.22
2023-06-27T19:15:09.890Z,43.23
2023-06-27T19:17:36.494Z,43.69
2023-06-27T19:20:04.238Z,44.01
2023-06-27T19:22:31.182Z,44.20
2023-06-27T19:24:57.745Z,44.62
2023-06-27T19:27:24.203Z,44.51
2023-06-27T19:29:50.734Z,44.64
2023-06-27T19:32:17.265Z,44.95
2023-06-27T19:34:43.749Z,44.95
2023-06-27T19:37:10.307Z,45.00
2023-06-27T19:39:37.149Z,45.12
2023-06-27T19:42:03.892Z,45.15
2023-06-27T19:44:30.344Z,45.54
2023-06-27T19:46:56.799Z,45.46
2023-06-27T19:49:23.316Z,45.21
2023-06-27T19:51:49.820Z,45.58
2023-06-27T19:54:16.310Z,45.87
2023-06-27T19:56:42.942Z,45.98
2023-06-27T19:59:09.502Z,46.26
2023-06-27T20:01:36.107Z,46.36
2023-06-27T20:04:03.732Z,46.32
2023-06-27T20:06:30.292Z,46.75
2023-06-27T20:08:56.737Z,46.64
2023-06-27T20:11:23.536Z,46.94
2023-06-27T20:13:50.077Z,46.87
2023-06-27T20:16:16.565Z,47.10
2023-06-27T20:18:43.124Z,46.94
2023-06-27T20:21:09.660Z,47.26
2023-06-27T20:23:36.086Z,47.41
2023-06-27T20:26:03.769Z,47.47
2023-06-27T20:28:30.293Z,47.51
2023-06-27T20:30:57.996Z,47.89
2023-06-27T20:33:24.457Z,48.00
2023-06-27T20:35:51.032Z,48.17
2023-06-27T20:38:18.376Z,48.52
2023-06-27T20:40:45.055Z,48.47
2023-06-27T20:43:11.672Z,48.46
2023-06-27T20:45:38.253Z,48.34
2023-06-27T20:48:05.079Z,48.36
2023-06-27T20:50:31.537Z,48.50
2023-06-27T20:52:58.172Z,48.58
2023-06-27T20:55:24.801Z,48.43
2023-06-27T20:57:51.243Z,48.66
2023-06-27T21:00:18.090Z,48.68
2023-06-27T21:02:44.627Z,48.87
2023-06-27T21:05:11.179Z,48.89
2023-06-27T21:07:37.821Z,48.88
2023-06-27T21:10:04.611Z,49.26
2023-06-27T21:12:31.117Z,49.11
2023-06-27T21:14:58.156Z,49.16
2023-06-27T21:17:27.791Z,49.16
2023-06-27T21:19:54.351Z,48.92
2023-06-27T21:22:20.968Z,49.15
2023-06-27T21:24:47.468Z,49.17
2023-06-27T21:27:13.966Z,49.66
2023-06-27T21:29:40.430Z,49.82
2023-06-27T21:32:07.461Z,49.75
2023-06-27T21:34:33.955Z,50.10
2023-06-27T21:37:00.439Z,49.99
2023-06-27T21:39:27.132Z,50.32
2023-06-27T21:41:53.619Z,50.16
2023-06-27T21:44:20.083Z,50.44
2023-06-27T21:46:46.523Z,50.51
2023-06-27T21:49:12.978Z,50.76
2023-06-27T21:51:39.440Z,50.86
2023-06-27T21:54:05.906Z,50.78
2023-06-27T21:56:32.346Z,51.36
2023-06-27T21:58:58.785Z,51.22
2023-06-27T22:01:26.030Z,51.36
2023-06-27T22:03:52.697Z,51.41
2023-06-27T22:06:22.770Z,51.67
2023-06-27T22:08:57.197Z,51.39
2023-06-27T22:11:23.638Z,51.20
2023-06-27T22:13:50.075Z,51.20
2023-06-27T22:16:17.265Z,51.86
2023-06-27T22:18:45.409Z,51.76
2023-06-27T22:21:11.975Z,51.70
2023-06-27T22:23:38.446Z,51.76
2023-06-27T22:26:04.882Z,51.83
2023-06-27T22:28:31.297Z,52.46
2023-06-27T22:30:57.817Z,52.46
2023-06-27T22:33:24.278Z,51.96
2023-06-27T22:35:50.694Z,52.09
2023-06-27T22:38:18.592Z,52.23
2023-06-27T22:40:45.070Z,52.61
2023-06-27T22:43:11.528Z,52.36
2023-06-27T22:45:38.822Z,52.52
2023-06-27T22:48:05.781Z,52.45
2023-06-27T22:50:32.269Z,52.69
2023-06-27T22:52:59.289Z,52.43
2023-06-27T22:55:25.816Z,52.54
2023-06-27T22:57:52.274Z,52.82
2023-06-27T23:00:19.157Z,52.99
2023-06-27T23:02:45.721Z,52.97
2023-06-27T23:05:12.270Z,53.06
2023-06-27T23:07:39.177Z,53.01
2023-06-27T23:10:06.585Z,53.13
2023-06-27T23:12:33.318Z,53.18
2023-06-27T23:15:00.604Z,53.61
2023-06-27T23:17:27.094Z,53.57
2023-06-27T23:19:53.564Z,53.71
2023-06-27T23:22:20.869Z,54.02
2023-06-27T23:24:47.564Z,54.12
2023-06-27T23:27:14.388Z,54.16
2023-06-27T23:29:41.853Z,54.69
2023-06-27T23:32:09.404Z,54.89
2023-06-27T23:34:35.903Z,55.12
2023-06-27T23:37:02.565Z,55.33
2023-06-27T23:39:29.124Z,55.51
2023-06-27T23:41:55.996Z,55.58
2023-06-27T23:44:22.570Z,55.64
2023-06-27T23:46:49.106Z,55.73
2023-06-27T23:49:15.693Z,55.68
2023-06-27T23:51:42.198Z,56.10
2023-06-27T23:54:08.644Z,56.15
2023-06-27T23:56:35.138Z,56.00
2023-06-27T23:59:01.820Z,55.79
